sensor_id;sensor_type;location;lat;lon;timestamp;P1;durP1;ratioP1;P2;durP2;ratioP2
48241;SDS011;34041;51.812;4.622;2022-10-31T00:02:56;11.40;;;3.47;;
48241;SDS011;34041;51.812;4.622;2022-10-31T00:05:56;5.17;;;3.60;;
48241;SDS011;34041;51.812;4.622;2022-10-31T00:08:58;3.97;;;2.93;;
48241;SDS011;34041;51.812;4.622;2022-10-31T00:11:58;10.27;;;3.88;;
48241;SDS011;34041;51.812;4.622;2022-10-31T00:14:59;5.93;;;3.37;;
48241;SDS011;34041;51.812;4.622;2022-10-31T00:17:59;5.77;;;3.37;;
48241;SDS011;34041;51.812;4.622;2022-10-31T00:21:02;6.63;;;3.50;;
48241;SDS011;34041;51.812;4.622;2022-10-31T00:24:03;4.75;;;3.38;;
48241;SDS011;34041;51.812;4.622;2022-10-31T00:27:03;6.32;;;3.53;;
48241;SDS011;34041;51.812;4.622;2022-10-31T00:30:04;7.80;;;3.93;;
48241;SDS011;34041;51.812;4.622;2022-10-31T00:33:04;5.57;;;3.88;;
48241;SDS011;34041;51.812;4.622;2022-10-31T00:36:06;9.48;;;4.03;;
48241;SDS011;34041;51.812;4.622;2022-10-31T00:39:06;8.35;;;3.70;;
48241;SDS011;34041;51.812;4.622;2022-10-31T00:42:06;9.53;;;4.13;;
48241;SDS011;34041;51.812;4.622;2022-10-31T00:45:09;6.50;;;4.00;;
48241;SDS011;34041;51.812;4.622;2022-10-31T00:48:10;9.90;;;4.15;;
48241;SDS011;34041;51.812;4.622;2022-10-31T00:51:10;14.73;;;4.70;;
48241;SDS011;34041;51.812;4.622;2022-10-31T00:54:10;9.05;;;4.20;;
48241;SDS011;34041;51.812;4.622;2022-10-31T00:57:10;9.40;;;4.20;;
48241;SDS011;34041;51.812;4.622;2022-10-31T01:00:11;9.60;;;4.00;;
48241;SDS011;34041;51.812;4.622;2022-10-31T01:03:11;6.35;;;4.20;;
48241;SDS011;34041;51.812;4.622;2022-10-31T01:06:12;9.07;;;4.83;;
48241;SDS011;34041;51.812;4.622;2022-10-31T01:09:12;8.07;;;4.38;;
48241;SDS011;34041;51.812;4.622;2022-10-31T01:12:12;14.97;;;4.37;;
48241;SDS011;34041;51.812;4.622;2022-10-31T01:15:14;5.83;;;4.10;;
48241;SDS011;34041;51.812;4.622;2022-10-31T01:18:14;5.90;;;4.20;;
48241;SDS011;34041;51.812;4.622;2022-10-31T01:21:15;9.60;;;6.07;;
48241;SDS011;34041;51.812;4.622;2022-10-31T01:24:16;7.13;;;4.05;;
48241;SDS011;34041;51.812;4.622;2022-10-31T01:27:16;7.57;;;4.45;;
48241;SDS011;34041;51.812;4.622;2022-10-31T01:30:16;7.00;;;3.83;;
48241;SDS011;34041;51.812;4.622;2022-10-31T01:33:17;6.97;;;4.50;;
48241;SDS011;34041;51.812;4.622;2022-10-31T01:36:25;13.30;;;5.27;;
48241;SDS011;34041;51.812;4.622;2022-10-31T01:39:25;8.98;;;4.95;;
48241;SDS011;34041;51.812;4.622;2022-10-31T01:42:26;8.95;;;5.18;;
48241;SDS011;34041;51.812;4.622;2022-10-31T01:45:26;7.25;;;4.57;;
48241;SDS011;34041;51.812;4.622;2022-10-31T01:48:26;7.73;;;4.27;;
48241;SDS011;34041;51.812;4.622;2022-10-31T01:51:28;8.18;;;4.32;;
48241;SDS011;34041;51.812;4.622;2022-10-31T01:54:31;9.13;;;5.60;;
48241;SDS011;34041;51.812;4.622;2022-10-31T01:57:32;7.05;;;5.03;;
48241;SDS011;34041;51.812;4.622;2022-10-31T02:00:33;8.80;;;5.80;;
48241;SDS011;34041;51.812;4.622;2022-10-31T02:03:33;8.73;;;5.03;;
48241;SDS011;34041;51.812;4.622;2022-10-31T02:09:37;11.75;;;6.35;;
48241;SDS011;34041;51.812;4.622;2022-10-31T02:12:37;8.38;;;4.80;;
48241;SDS011;34041;51.812;4.622;2022-10-31T02:15:38;7.68;;;5.97;;
48241;SDS011;34041;51.812;4.622;2022-10-31T02:18:39;9.30;;;5.32;;
48241;SDS011;34041;51.812;4.622;2022-10-31T02:22:13;7.67;;;5.07;;
48241;SDS011;34041;51.812;4.622;2022-10-31T02:35:14;12.82;;;5.57;;
48241;SDS011;34041;51.812;4.622;2022-10-31T02:38:29;15.77;;;7.25;;
48241;SDS011;34041;51.812;4.622;2022-10-31T02:41:42;11.70;;;5.57;;
48241;SDS011;34041;51.812;4.622;2022-10-31T07:37:06;16.50;;;11.73;;
48241;SDS011;34041;51.812;4.622;2022-10-31T07:40:06;21.00;;;12.27;;
48241;SDS011;34041;51.812;4.622;2022-10-31T07:43:07;14.32;;;11.88;;
48241;SDS011;34041;51.812;4.622;2022-10-31T07:46:08;16.52;;;12.75;;
48241;SDS011;34041;51.812;4.622;2022-10-31T07:49:08;16.57;;;11.73;;
48241;SDS011;34041;51.812;4.622;2022-10-31T07:52:08;12.68;;;10.93;;
48241;SDS011;34041;51.812;4.622;2022-10-31T07:55:08;15.87;;;12.27;;
48241;SDS011;34041;51.812;4.622;2022-10-31T07:58:13;12.93;;;11.05;;
48241;SDS011;34041;51.812;4.622;2022-10-31T08:01:13;22.05;;;10.93;;
48241;SDS011;34041;51.812;4.622;2022-10-31T08:04:13;18.17;;;11.87;;
48241;SDS011;34041;51.812;4.622;2022-10-31T08:07:13;17.50;;;11.87;;
48241;SDS011;34041;51.812;4.622;2022-10-31T08:10:14;14.13;;;12.63;;
48241;SDS011;34041;51.812;4.622;2022-10-31T08:13:14;20.05;;;12.00;;
48241;SDS011;34041;51.812;4.622;2022-10-31T08:16:14;17.17;;;13.10;;
48241;SDS011;34041;51.812;4.622;2022-10-31T08:19:14;12.83;;;11.07;;
48241;SDS011;34041;51.812;4.622;2022-10-31T08:22:14;13.17;;;11.13;;
48241;SDS011;34041;51.812;4.622;2022-10-31T08:25:15;16.33;;;12.83;;
48241;SDS011;34041;51.812;4.622;2022-10-31T08:28:15;18.30;;;11.90;;
48241;SDS011;34041;51.812;4.622;2022-10-31T08:31:15;15.80;;;11.70;;
48241;SDS011;34041;51.812;4.622;2022-10-31T08:34:15;17.43;;;12.17;;
48241;SDS011;34041;51.812;4.622;2022-10-31T08:37:16;15.73;;;11.55;;
48241;SDS011;34041;51.812;4.622;2022-10-31T08:40:19;17.23;;;11.93;;
48241;SDS011;34041;51.812;4.622;2022-10-31T08:43:19;16.35;;;13.13;;
48241;SDS011;34041;51.812;4.622;2022-10-31T08:46:20;19.07;;;13.70;;
48241;SDS011;34041;51.812;4.622;2022-10-31T08:49:20;20.63;;;11.98;;
48241;SDS011;34041;51.812;4.622;2022-10-31T08:52:22;16.70;;;12.80;;
48241;SDS011;34041;51.812;4.622;2022-10-31T08:55:22;18.67;;;12.85;;
48241;SDS011;34041;51.812;4.622;2022-10-31T08:58:23;16.53;;;13.13;;
48241;SDS011;34041;51.812;4.622;2022-10-31T09:01:23;14.77;;;11.80;;
48241;SDS011;34041;51.812;4.622;2022-10-31T09:04:24;20.23;;;12.70;;
48241;SDS011;34041;51.812;4.622;2022-10-31T09:07:24;15.00;;;12.57;;
48241;SDS011;34041;51.812;4.622;2022-10-31T09:10:25;17.70;;;13.25;;
48241;SDS011;34041;51.812;4.622;2022-10-31T09:13:25;22.25;;;12.82;;
48241;SDS011;34041;51.812;4.622;2022-10-31T09:16:25;20.17;;;14.57;;
48241;SDS011;34041;51.812;4.622;2022-10-31T09:19:26;15.95;;;13.20;;
48241;SDS011;34041;51.812;4.622;2022-10-31T09:22:26;15.10;;;12.90;;
48241;SDS011;34041;51.812;4.622;2022-10-31T09:25:26;16.53;;;12.47;;
48241;SDS011;34041;51.812;4.622;2022-10-31T09:28:27;18.10;;;12.75;;
48241;SDS011;34041;51.812;4.622;2022-10-31T09:31:27;18.50;;;14.30;;
48241;SDS011;34041;51.812;4.622;2022-10-31T09:34:27;15.60;;;13.13;;
48241;SDS011;34041;51.812;4.622;2022-10-31T09:37:28;18.17;;;14.05;;
48241;SDS011;34041;51.812;4.622;2022-10-31T09:46:53;19.35;;;14.95;;
48241;SDS011;34041;51.812;4.622;2022-10-31T09:50:17;18.15;;;12.98;;
48241;SDS011;34041;51.812;4.622;2022-10-31T09:53:22;17.65;;;13.68;;
48241;SDS011;34041;51.812;4.622;2022-10-31T09:56:23;19.65;;;15.50;;
48241;SDS011;34041;51.812;4.622;2022-10-31T09:59:26;21.98;;;15.75;;
48241;SDS011;34041;51.812;4.622;2022-10-31T10:02:38;20.52;;;14.60;;
48241;SDS011;34041;51.812;4.622;2022-10-31T10:06:41;20.25;;;14.45;;
48241;SDS011;34041;51.812;4.622;2022-10-31T10:09:09;17.90;;;13.52;;
48241;SDS011;34041;51.812;4.622;2022-10-31T10:24:51;16.48;;;13.98;;
48241;SDS011;34041;51.812;4.622;2022-10-31T10:28:12;18.02;;;13.65;;
48241;SDS011;34041;51.812;4.622;2022-10-31T10:31:15;15.65;;;13.93;;
48241;SDS011;34041;51.812;4.622;2022-10-31T10:34:23;19.92;;;14.20;;
48241;SDS011;34041;51.812;4.622;2022-10-31T10:37:32;17.88;;;13.95;;
48241;SDS011;34041;51.812;4.622;2022-10-31T10:40:33;16.02;;;13.20;;
48241;SDS011;34041;51.812;4.622;2022-10-31T10:43:37;14.63;;;12.35;;
48241;SDS011;34041;51.812;4.622;2022-10-31T10:46:41;15.52;;;11.93;;
48241;SDS011;34041;51.812;4.622;2022-10-31T10:50:00;15.82;;;11.85;;
48241;SDS011;34041;51.812;4.622;2022-10-31T10:56:24;17.38;;;12.05;;
48241;SDS011;34041;51.812;4.622;2022-10-31T10:59:27;15.30;;;10.80;;
48241;SDS011;34041;51.812;4.622;2022-10-31T11:02:31;16.45;;;11.82;;
48241;SDS011;34041;51.812;4.622;2022-10-31T11:08:40;13.32;;;10.73;;
48241;SDS011;34041;51.812;4.622;2022-10-31T11:11:41;18.23;;;13.18;;
48241;SDS011;34041;51.812;4.622;2022-10-31T11:14:45;13.75;;;11.63;;
48241;SDS011;34041;51.812;4.622;2022-10-31T11:20:50;14.75;;;12.27;;
48241;SDS011;34041;51.812;4.622;2022-10-31T11:24:01;15.95;;;11.55;;
48241;SDS011;34041;51.812;4.622;2022-10-31T11:27:21;15.73;;;11.55;;
48241;SDS011;34041;51.812;4.622;2022-10-31T11:30:21;14.35;;;11.25;;
48241;SDS011;34041;51.812;4.622;2022-10-31T11:36:29;15.93;;;10.77;;
48241;SDS011;34041;51.812;4.622;2022-10-31T11:39:30;17.15;;;11.55;;
48241;SDS011;34041;51.812;4.622;2022-10-31T11:42:37;16.50;;;12.00;;
48241;SDS011;34041;51.812;4.622;2022-10-31T11:45:38;16.25;;;12.88;;
48241;SDS011;34041;51.812;4.622;2022-10-31T11:48:38;15.17;;;12.60;;
48241;SDS011;34041;51.812;4.622;2022-10-31T11:51:38;14.47;;;12.97;;
48241;SDS011;34041;51.812;4.622;2022-10-31T11:54:41;15.23;;;13.02;;
48241;SDS011;34041;51.812;4.622;2022-10-31T11:57:51;15.85;;;12.82;;
48241;SDS011;34041;51.812;4.622;2022-10-31T12:00:53;18.85;;;12.43;;
48241;SDS011;34041;51.812;4.622;2022-10-31T12:04:06;16.23;;;13.25;;
48241;SDS011;34041;51.812;4.622;2022-10-31T12:07:07;19.15;;;13.85;;
48241;SDS011;34041;51.812;4.622;2022-10-31T12:10:10;18.00;;;14.15;;
48241;SDS011;34041;51.812;4.622;2022-10-31T12:23:04;17.63;;;14.82;;
48241;SDS011;34041;51.812;4.622;2022-10-31T12:29:12;19.27;;;14.93;;
48241;SDS011;34041;51.812;4.622;2022-10-31T12:57:26;19.58;;;15.80;;
48241;SDS011;34041;51.812;4.622;2022-10-31T13:00:27;21.75;;;16.30;;
48241;SDS011;34041;51.812;4.622;2022-10-31T13:06:47;23.08;;;16.10;;
48241;SDS011;34041;51.812;4.622;2022-10-31T13:09:51;24.90;;;16.65;;
48241;SDS011;34041;51.812;4.622;2022-10-31T13:13:06;21.00;;;16.83;;
48241;SDS011;34041;51.812;4.622;2022-10-31T13:16:12;20.48;;;17.10;;
48241;SDS011;34041;51.812;4.622;2022-10-31T13:19:15;23.75;;;17.52;;
48241;SDS011;34041;51.812;4.622;2022-10-31T13:22:17;22.75;;;17.00;;
48241;SDS011;34041;51.812;4.622;2022-10-31T13:25:39;18.77;;;16.23;;
48241;SDS011;34041;51.812;4.622;2022-10-31T13:28:46;21.13;;;16.30;;
48241;SDS011;34041;51.812;4.622;2022-10-31T13:31:47;20.65;;;16.75;;
48241;SDS011;34041;51.812;4.622;2022-10-31T13:34:50;22.03;;;17.60;;
48241;SDS011;34041;51.812;4.622;2022-10-31T13:37:55;26.03;;;17.37;;
48241;SDS011;34041;51.812;4.622;2022-10-31T13:40:59;20.10;;;16.98;;
48241;SDS011;34041;51.812;4.622;2022-10-31T13:44:12;22.75;;;16.88;;
48241;SDS011;34041;51.812;4.622;2022-10-31T13:47:28;20.92;;;16.70;;
48241;SDS011;34041;51.812;4.622;2022-10-31T13:50:30;20.77;;;17.15;;
48241;SDS011;34041;51.812;4.622;2022-10-31T13:53:41;20.95;;;15.55;;
48241;SDS011;34041;51.812;4.622;2022-10-31T13:56:42;23.85;;;18.67;;
48241;SDS011;34041;51.812;4.622;2022-10-31T13:59:49;19.58;;;16.35;;
48241;SDS011;34041;51.812;4.622;2022-10-31T14:02:51;23.45;;;17.90;;
48241;SDS011;34041;51.812;4.622;2022-10-31T14:05:52;24.13;;;18.25;;
48241;SDS011;34041;51.812;4.622;2022-10-31T14:08:53;22.58;;;17.05;;
48241;SDS011;34041;51.812;4.622;2022-10-31T14:11:53;22.92;;;17.00;;
48241;SDS011;34041;51.812;4.622;2022-10-31T14:15:00;22.73;;;18.23;;
48241;SDS011;34041;51.812;4.622;2022-10-31T14:18:03;22.45;;;19.10;;
48241;SDS011;34041;51.812;4.622;2022-10-31T14:21:25;22.10;;;19.08;;
48241;SDS011;34041;51.812;4.622;2022-10-31T14:30:27;24.02;;;19.13;;
48241;SDS011;34041;51.812;4.622;2022-10-31T14:33:28;24.20;;;18.40;;
48241;SDS011;34041;51.812;4.622;2022-10-31T14:36:37;25.02;;;18.77;;
48241;SDS011;34041;51.812;4.622;2022-10-31T14:39:46;26.30;;;20.13;;
48241;SDS011;34041;51.812;4.622;2022-10-31T14:52:14;23.50;;;19.23;;
48241;SDS011;34041;51.812;4.622;2022-10-31T14:55:17;22.63;;;18.90;;
48241;SDS011;34041;51.812;4.622;2022-10-31T14:58:22;21.17;;;17.90;;
48241;SDS011;34041;51.812;4.622;2022-10-31T15:01:27;23.60;;;18.73;;
48241;SDS011;34041;51.812;4.622;2022-10-31T15:04:30;21.55;;;18.90;;
48241;SDS011;34041;51.812;4.622;2022-10-31T15:07:32;23.10;;;19.63;;
48241;SDS011;34041;51.812;4.622;2022-10-31T15:10:36;21.88;;;18.40;;
48241;SDS011;34041;51.812;4.622;2022-10-31T15:13:40;25.85;;;19.08;;
48241;SDS011;34041;51.812;4.622;2022-10-31T15:16:41;25.55;;;20.70;;
48241;SDS011;34041;51.812;4.622;2022-10-31T15:19:42;22.17;;;19.75;;
48241;SDS011;34041;51.812;4.622;2022-10-31T15:22:43;24.98;;;19.88;;
48241;SDS011;34041;51.812;4.622;2022-10-31T15:25:43;21.87;;;19.10;;
48241;SDS011;34041;51.812;4.622;2022-10-31T15:28:44;21.80;;;19.10;;
48241;SDS011;34041;51.812;4.622;2022-10-31T15:31:55;28.30;;;21.20;;
48241;SDS011;34041;51.812;4.622;2022-10-31T15:34:56;23.45;;;18.52;;
48241;SDS011;34041;51.812;4.622;2022-10-31T15:37:57;25.50;;;19.65;;
48241;SDS011;34041;51.812;4.622;2022-10-31T15:40:59;27.63;;;20.15;;
48241;SDS011;34041;51.812;4.622;2022-10-31T15:44:02;23.58;;;21.02;;
48241;SDS011;34041;51.812;4.622;2022-10-31T15:47:04;23.38;;;19.25;;
48241;SDS011;34041;51.812;4.622;2022-10-31T15:50:06;22.33;;;19.92;;
48241;SDS011;34041;51.812;4.622;2022-10-31T15:53:25;23.95;;;19.50;;
48241;SDS011;34041;51.812;4.622;2022-10-31T15:56:27;28.05;;;21.33;;
48241;SDS011;34041;51.812;4.622;2022-10-31T15:59:28;25.77;;;20.90;;
48241;SDS011;34041;51.812;4.622;2022-10-31T16:02:29;30.65;;;25.08;;
48241;SDS011;34041;51.812;4.622;2022-10-31T16:05:33;29.70;;;24.07;;
48241;SDS011;34041;51.812;4.622;2022-10-31T16:08:35;26.50;;;22.30;;
48241;SDS011;34041;51.812;4.622;2022-10-31T16:11:36;27.35;;;22.42;;
48241;SDS011;34041;51.812;4.622;2022-10-31T16:14:37;26.60;;;21.50;;
48241;SDS011;34041;51.812;4.622;2022-10-31T16:17:40;27.92;;;21.33;;
48241;SDS011;34041;51.812;4.622;2022-10-31T16:20:40;26.58;;;21.17;;
48241;SDS011;34041;51.812;4.622;2022-10-31T16:23:47;23.38;;;20.63;;
48241;SDS011;34041;51.812;4.622;2022-10-31T16:26:50;29.27;;;21.90;;
48241;SDS011;34041;51.812;4.622;2022-10-31T16:29:51;25.05;;;19.00;;
48241;SDS011;34041;51.812;4.622;2022-10-31T16:32:53;27.98;;;20.73;;
48241;SDS011;34041;51.812;4.622;2022-10-31T16:35:54;21.90;;;19.45;;
48241;SDS011;34041;51.812;4.622;2022-10-31T16:38:55;20.73;;;18.45;;
48241;SDS011;34041;51.812;4.622;2022-10-31T16:41:55;20.97;;;17.90;;
48241;SDS011;34041;51.812;4.622;2022-10-31T16:44:55;23.45;;;19.77;;
48241;SDS011;34041;51.812;4.622;2022-10-31T16:48:06;23.17;;;17.35;;
48241;SDS011;34041;51.812;4.622;2022-10-31T16:51:08;21.42;;;17.25;;
48241;SDS011;34041;51.812;4.622;2022-10-31T16:54:09;24.80;;;18.93;;
48241;SDS011;34041;51.812;4.622;2022-10-31T16:57:13;20.55;;;16.75;;
48241;SDS011;34041;51.812;4.622;2022-10-31T17:00:21;19.05;;;16.40;;
48241;SDS011;34041;51.812;4.622;2022-10-31T17:03:21;19.52;;;16.15;;
48241;SDS011;34041;51.812;4.622;2022-10-31T17:06:22;22.92;;;15.90;;
48241;SDS011;34041;51.812;4.622;2022-10-31T17:09:22;22.47;;;15.57;;
48241;SDS011;34041;51.812;4.622;2022-10-31T17:12:22;17.93;;;13.83;;
48241;SDS011;34041;51.812;4.622;2022-10-31T17:15:26;20.77;;;15.88;;
48241;SDS011;34041;51.812;4.622;2022-10-31T17:18:27;19.08;;;15.77;;
48241;SDS011;34041;51.812;4.622;2022-10-31T17:21:27;23.83;;;16.35;;
48241;SDS011;34041;51.812;4.622;2022-10-31T17:24:27;19.08;;;14.82;;
48241;SDS011;34041;51.812;4.622;2022-10-31T17:27:28;22.92;;;14.75;;
48241;SDS011;34041;51.812;4.622;2022-10-31T17:30:28;20.73;;;14.73;;
48241;SDS011;34041;51.812;4.622;2022-10-31T17:33:28;18.10;;;14.30;;
48241;SDS011;34041;51.812;4.622;2022-10-31T17:36:28;18.87;;;14.93;;
48241;SDS011;34041;51.812;4.622;2022-10-31T17:39:29;19.25;;;14.07;;
48241;SDS011;34041;51.812;4.622;2022-10-31T17:42:29;20.93;;;14.47;;
48241;SDS011;34041;51.812;4.622;2022-10-31T17:45:30;18.92;;;14.02;;
48241;SDS011;34041;51.812;4.622;2022-10-31T17:48:32;15.18;;;12.13;;
48241;SDS011;34041;51.812;4.622;2022-10-31T17:51:32;17.42;;;13.20;;
48241;SDS011;34041;51.812;4.622;2022-10-31T17:54:32;17.37;;;14.17;;
48241;SDS011;34041;51.812;4.622;2022-10-31T17:57:33;16.50;;;12.53;;
48241;SDS011;34041;51.812;4.622;2022-10-31T18:00:34;14.35;;;11.93;;
48241;SDS011;34041;51.812;4.622;2022-10-31T18:03:34;16.47;;;14.13;;
48241;SDS011;34041;51.812;4.622;2022-10-31T18:06:34;16.73;;;12.45;;
48241;SDS011;34041;51.812;4.622;2022-10-31T18:09:34;15.68;;;11.70;;
48241;SDS011;34041;51.812;4.622;2022-10-31T18:12:35;18.65;;;11.95;;
48241;SDS011;34041;51.812;4.622;2022-10-31T18:15:38;19.60;;;12.80;;
48241;SDS011;34041;51.812;4.622;2022-10-31T18:18:39;18.98;;;12.13;;
48241;SDS011;34041;51.812;4.622;2022-10-31T18:21:39;18.98;;;13.48;;
48241;SDS011;34041;51.812;4.622;2022-10-31T18:24:39;17.83;;;12.87;;
48241;SDS011;34041;51.812;4.622;2022-10-31T18:27:40;15.93;;;13.43;;
48241;SDS011;34041;51.812;4.622;2022-10-31T18:30:40;17.00;;;12.50;;
48241;SDS011;34041;51.812;4.622;2022-10-31T18:33:40;14.85;;;11.52;;
48241;SDS011;34041;51.812;4.622;2022-10-31T18:36:41;16.15;;;12.13;;
48241;SDS011;34041;51.812;4.622;2022-10-31T18:39:41;18.85;;;13.68;;
48241;SDS011;34041;51.812;4.622;2022-10-31T18:42:42;15.55;;;11.35;;
48241;SDS011;34041;51.812;4.622;2022-10-31T18:45:42;17.52;;;10.63;;
48241;SDS011;34041;51.812;4.622;2022-10-31T18:48:43;14.77;;;10.55;;
48241;SDS011;34041;51.812;4.622;2022-10-31T18:51:43;14.50;;;11.65;;
48241;SDS011;34041;51.812;4.622;2022-10-31T18:54:43;14.57;;;10.57;;
48241;SDS011;34041;51.812;4.622;2022-10-31T18:57:43;12.88;;;10.65;;
48241;SDS011;34041;51.812;4.622;2022-10-31T19:00:44;15.97;;;11.30;;
48241;SDS011;34041;51.812;4.622;2022-10-31T19:03:44;13.30;;;10.57;;
48241;SDS011;34041;51.812;4.622;2022-10-31T19:06:45;13.57;;;9.52;;
48241;SDS011;34041;51.812;4.622;2022-10-31T19:09:45;13.13;;;10.83;;
48241;SDS011;34041;51.812;4.622;2022-10-31T19:12:45;13.70;;;9.67;;
48241;SDS011;34041;51.812;4.622;2022-10-31T19:15:46;14.37;;;10.93;;
48241;SDS011;34041;51.812;4.622;2022-10-31T19:18:46;15.17;;;9.90;;
48241;SDS011;34041;51.812;4.622;2022-10-31T19:21:46;17.60;;;9.77;;
48241;SDS011;34041;51.812;4.622;2022-10-31T19:24:46;17.30;;;11.20;;
48241;SDS011;34041;51.812;4.622;2022-10-31T19:27:47;14.57;;;10.30;;
48241;SDS011;34041;51.812;4.622;2022-10-31T19:30:53;62.20;;;28.53;;
48241;SDS011;34041;51.812;4.622;2022-10-31T19:33:53;39.13;;;21.65;;
48241;SDS011;34041;51.812;4.622;2022-10-31T19:36:54;32.37;;;17.30;;
48241;SDS011;34041;51.812;4.622;2022-10-31T19:39:54;27.40;;;13.48;;
48241;SDS011;34041;51.812;4.622;2022-10-31T19:42:54;24.57;;;14.30;;
48241;SDS011;34041;51.812;4.622;2022-10-31T19:45:55;22.37;;;12.77;;
48241;SDS011;34041;51.812;4.622;2022-10-31T19:48:55;22.33;;;13.20;;
48241;SDS011;34041;51.812;4.622;2022-10-31T19:51:56;21.00;;;13.15;;
48241;SDS011;34041;51.812;4.622;2022-10-31T19:54:56;20.75;;;12.38;;
48241;SDS011;34041;51.812;4.622;2022-10-31T19:57:56;22.90;;;12.17;;
48241;SDS011;34041;51.812;4.622;2022-10-31T20:00:56;21.73;;;12.30;;
48241;SDS011;34041;51.812;4.622;2022-10-31T20:03:57;17.53;;;12.40;;
48241;SDS011;34041;51.812;4.622;2022-10-31T20:06:57;15.93;;;11.07;;
48241;SDS011;34041;51.812;4.622;2022-10-31T20:09:57;19.93;;;11.50;;
48241;SDS011;34041;51.812;4.622;2022-10-31T20:12:57;19.60;;;11.20;;
48241;SDS011;34041;51.812;4.622;2022-10-31T20:15:58;15.77;;;9.77;;
48241;SDS011;34041;51.812;4.622;2022-10-31T20:18:59;13.48;;;9.25;;
48241;SDS011;34041;51.812;4.622;2022-10-31T20:21:59;15.48;;;9.35;;
48241;SDS011;34041;51.812;4.622;2022-10-31T20:25:00;12.73;;;9.37;;
48241;SDS011;34041;51.812;4.622;2022-10-31T20:28:00;11.57;;;8.60;;
48241;SDS011;34041;51.812;4.622;2022-10-31T20:31:05;11.75;;;8.27;;
48241;SDS011;34041;51.812;4.622;2022-10-31T20:34:06;14.07;;;9.43;;
48241;SDS011;34041;51.812;4.622;2022-10-31T20:37:06;12.13;;;8.40;;
48241;SDS011;34041;51.812;4.622;2022-10-31T20:40:06;12.17;;;7.77;;
48241;SDS011;34041;51.812;4.622;2022-10-31T20:43:07;14.07;;;8.55;;
48241;SDS011;34041;51.812;4.622;2022-10-31T20:46:17;10.73;;;8.30;;
48241;SDS011;34041;51.812;4.622;2022-10-31T20:49:18;11.77;;;8.27;;
48241;SDS011;34041;51.812;4.622;2022-10-31T20:52:18;16.57;;;7.80;;
48241;SDS011;34041;51.812;4.622;2022-10-31T20:55:19;11.43;;;7.33;;
48241;SDS011;34041;51.812;4.622;2022-10-31T20:58:19;10.25;;;6.75;;
48241;SDS011;34041;51.812;4.622;2022-10-31T21:01:20;9.73;;;7.50;;
48241;SDS011;34041;51.812;4.622;2022-10-31T21:04:21;10.05;;;7.07;;
48241;SDS011;34041;51.812;4.622;2022-10-31T21:07:21;9.13;;;6.65;;
48241;SDS011;34041;51.812;4.622;2022-10-31T21:10:21;9.83;;;7.43;;
48241;SDS011;34041;51.812;4.622;2022-10-31T21:13:22;12.33;;;8.30;;
48241;SDS011;34041;51.812;4.622;2022-10-31T21:16:23;11.90;;;7.50;;
48241;SDS011;34041;51.812;4.622;2022-10-31T21:19:24;10.07;;;6.75;;
48241;SDS011;34041;51.812;4.622;2022-10-31T21:22:24;10.43;;;6.20;;
48241;SDS011;34041;51.812;4.622;2022-10-31T21:25:24;8.03;;;6.67;;
48241;SDS011;34041;51.812;4.622;2022-10-31T21:28:24;10.17;;;6.47;;
48241;SDS011;34041;51.812;4.622;2022-10-31T21:31:25;7.53;;;5.90;;
48241;SDS011;34041;51.812;4.622;2022-10-31T21:34:27;12.38;;;7.20;;
48241;SDS011;34041;51.812;4.622;2022-10-31T21:37:27;10.60;;;5.63;;
48241;SDS011;34041;51.812;4.622;2022-10-31T21:40:27;10.33;;;6.17;;
48241;SDS011;34041;51.812;4.622;2022-10-31T21:43:28;9.93;;;6.80;;
48241;SDS011;34041;51.812;4.622;2022-10-31T21:46:29;7.95;;;5.63;;
48241;SDS011;34041;51.812;4.622;2022-10-31T21:49:30;10.40;;;6.40;;
48241;SDS011;34041;51.812;4.622;2022-10-31T21:52:30;12.20;;;6.20;;
48241;SDS011;34041;51.812;4.622;2022-10-31T21:55:30;9.00;;;5.63;;
48241;SDS011;34041;51.812;4.622;2022-10-31T21:58:30;8.33;;;6.33;;
48241;SDS011;34041;51.812;4.622;2022-10-31T22:01:31;10.30;;;5.60;;
48241;SDS011;34041;51.812;4.622;2022-10-31T22:04:31;9.45;;;5.93;;
48241;SDS011;34041;51.812;4.622;2022-10-31T22:07:32;7.38;;;5.03;;
48241;SDS011;34041;51.812;4.622;2022-10-31T22:10:32;8.17;;;5.17;;
48241;SDS011;34041;51.812;4.622;2022-10-31T22:13:33;9.50;;;5.27;;
48241;SDS011;34041;51.812;4.622;2022-10-31T22:16:33;8.52;;;6.07;;
48241;SDS011;34041;51.812;4.622;2022-10-31T22:19:34;8.98;;;5.38;;
48241;SDS011;34041;51.812;4.622;2022-10-31T22:22:34;11.87;;;6.43;;
48241;SDS011;34041;51.812;4.622;2022-10-31T22:25:35;8.07;;;6.07;;
48241;SDS011;34041;51.812;4.622;2022-10-31T22:28:36;8.02;;;6.05;;
48241;SDS011;34041;51.812;4.622;2022-10-31T22:31:37;8.20;;;5.57;;
48241;SDS011;34041;51.812;4.622;2022-10-31T22:34:37;9.23;;;5.43;;
48241;SDS011;34041;51.812;4.622;2022-10-31T22:37:38;6.43;;;5.70;;
48241;SDS011;34041;51.812;4.622;2022-10-31T22:40:38;9.27;;;5.40;;
48241;SDS011;34041;51.812;4.622;2022-10-31T22:43:38;7.43;;;4.50;;
48241;SDS011;34041;51.812;4.622;2022-10-31T22:46:39;7.38;;;4.35;;
48241;SDS011;34041;51.812;4.622;2022-10-31T22:49:39;8.60;;;5.63;;
48241;SDS011;34041;51.812;4.622;2022-10-31T22:52:39;7.53;;;5.37;;
48241;SDS011;34041;51.812;4.622;2022-10-31T22:55:40;8.13;;;5.33;;
48241;SDS011;34041;51.812;4.622;2022-10-31T22:58:40;9.68;;;5.47;;
48241;SDS011;34041;51.812;4.622;2022-10-31T23:01:41;6.65;;;5.07;;
48241;SDS011;34041;51.812;4.622;2022-10-31T23:04:43;8.25;;;5.28;;
48241;SDS011;34041;51.812;4.622;2022-10-31T23:07:43;9.10;;;4.70;;
48241;SDS011;34041;51.812;4.622;2022-10-31T23:10:43;9.53;;;5.37;;
48241;SDS011;34041;51.812;4.622;2022-10-31T23:13:44;6.13;;;4.60;;
48241;SDS011;34041;51.812;4.622;2022-10-31T23:17:03;8.70;;;5.25;;
48241;SDS011;34041;51.812;4.622;2022-10-31T23:20:03;8.90;;;4.93;;
48241;SDS011;34041;51.812;4.622;2022-10-31T23:23:05;6.85;;;4.70;;
48241;SDS011;34041;51.812;4.622;2022-10-31T23:26:06;7.33;;;4.70;;
48241;SDS011;34041;51.812;4.622;2022-10-31T23:29:24;8.50;;;4.95;;
48241;SDS011;34041;51.812;4.622;2022-10-31T23:32:26;6.27;;;4.60;;
48241;SDS011;34041;51.812;4.622;2022-10-31T23:35:26;6.32;;;4.20;;
48241;SDS011;34041;51.812;4.622;2022-10-31T23:38:26;8.43;;;5.35;;
48241;SDS011;34041;51.812;4.622;2022-10-31T23:41:27;10.10;;;5.30;;
48241;SDS011;34041;51.812;4.622;2022-10-31T23:44:27;5.00;;;3.90;;
48241;SDS011;34041;51.812;4.622;2022-10-31T23:47:27;6.68;;;4.43;;
48241;SDS011;34041;51.812;4.622;2022-10-31T23:50:28;7.77;;;4.63;;
48241;SDS011;34041;51.812;4.622;2022-10-31T23:53:28;5.17;;;3.97;;
48241;SDS011;34041;51.812;4.622;2022-10-31T23:56:28;7.97;;;4.23;;
48241;SDS011;34041;51.812;4.622;2022-10-31T23:59:28;8.63;;;4.10;;
